createdAt,value
2024-02-14T00:01:49.509Z,23.5
2024-02-14T00:07:28.873Z,23.4
2024-02-14T00:18:00.353Z,30.7
2024-02-14T00:23:24.424Z,27.4
2024-02-14T00:29:03.691Z,26.2
2024-02-14T00:34:29.643Z,25.3
2024-02-14T00:40:09.003Z,24.8
2024-02-14T00:45:17.159Z,24.4
2024-02-14T00:50:58.624Z,24.1
2024-02-14T00:56:37.265Z,23.8
2024-02-14T01:02:16.607Z,23.5
2024-02-14T01:07:56.325Z,23.3
2024-02-14T01:13:35.839Z,23.8
2024-02-14T01:19:00.234Z,29.2
2024-02-14T08:12:11.575Z,23.6
2024-02-14T08:17:37.864Z,23.3
2024-02-14T08:23:08.188Z,23.1
2024-02-14T08:28:47.488Z,22.8
2024-02-14T08:34:27.985Z,22.6
2024-02-14T08:40:14.004Z,26
2024-02-14T08:45:54.277Z,29.2
2024-02-14T08:51:39.080Z,26.9
2024-02-14T08:57:22.558Z,25.8
2024-02-14T09:03:17.645Z,24.7
2024-02-14T09:08:57.733Z,23.9
2024-02-14T09:14:36.808Z,23.6
2024-02-14T09:20:18.029Z,23.1
2024-02-14T09:25:57.732Z,22.9
2024-02-14T09:31:50.633Z,26.6
2024-02-14T09:37:17.204Z,29.4
2024-02-14T09:42:56.749Z,26.8
2024-02-14T09:48:40.589Z,25.7
2024-02-14T09:54:20.696Z,24.6
2024-02-14T10:00:00.841Z,23.9
2024-02-14T10:05:40.714Z,23.6
2024-02-14T10:11:33.230Z,23.2
2024-02-14T10:16:59.465Z,22.9
2024-02-14T10:22:40.096Z,25.7
2024-02-14T10:28:20.172Z,29
2024-02-14T10:34:18.726Z,27.1
2024-02-14T10:39:58.557Z,26.3
2024-02-14T10:45:40.935Z,24.7
2024-02-14T10:51:21.189Z,24.4
2024-02-14T10:56:59.981Z,23.6
2024-02-14T11:02:40.496Z,23.3
2024-02-14T11:08:05.031Z,22.9
2024-02-14T11:13:45.744Z,23
2024-02-14T11:19:26.022Z,28.1
2024-02-14T11:25:07.548Z,28
2024-02-14T11:31:01.231Z,26.4
2024-02-14T11:36:42.583Z,24.9
2024-02-14T11:42:23.445Z,24.4
2024-02-14T11:48:03.134Z,24.3
2024-02-14T11:53:46.010Z,24.7
2024-02-14T11:59:25.408Z,28.8
2024-02-14T12:05:05.836Z,27.3
2024-02-14T12:10:46.624Z,26.4
2024-02-14T12:16:26.781Z,24.8
2024-02-14T12:22:06.445Z,24.3
2024-02-14T12:27:45.942Z,24.2
2024-02-14T12:33:30.091Z,24.1
2024-02-14T12:39:12.632Z,27.9
2024-02-14T12:44:51.797Z,28.8
2024-02-14T12:50:31.824Z,26.6
2024-02-14T12:56:10.200Z,26.2
2024-02-14T13:01:50.058Z,25.9
2024-02-14T13:07:30.025Z,25.8
2024-02-14T13:13:09.376Z,25.5
2024-02-14T13:18:49.942Z,26.3
2024-02-14T13:24:30.008Z,29.2
2024-02-14T13:29:52.524Z,27.1
2024-02-14T13:35:33.708Z,26.3
2024-02-14T13:41:12.162Z,26.1
2024-02-14T13:46:53.689Z,25.9
2024-02-14T13:52:36.064Z,25.6
2024-02-14T13:58:16.053Z,25.4
2024-02-14T14:03:53.770Z,27.9
2024-02-14T14:09:50.118Z,29.3
2024-02-14T14:15:31.297Z,26.6
2024-02-14T14:21:12.967Z,26.2
2024-02-14T14:26:54.344Z,25.9
2024-02-14T14:32:37.484Z,25.8
2024-02-14T14:38:20.460Z,25.6
2024-02-14T14:44:02.858Z,25.3
2024-02-14T14:49:29.917Z,25.1
2024-02-14T14:55:12.869Z,24.8
2024-02-14T15:00:55.182Z,24.5
2024-02-14T15:06:19.798Z,24.3
2024-02-14T15:12:00.839Z,24
2024-02-14T15:17:42.150Z,23.8
2024-02-14T15:23:25.536Z,23.5
2024-02-14T15:29:04.565Z,28.1
2024-02-14T15:34:44.926Z,33.2
2024-02-14T15:40:24.465Z,37.1
2024-02-14T15:46:02.686Z,40.8
2024-02-14T15:51:12.330Z,42.5
2024-02-14T15:56:51.519Z,42.3
2024-02-14T16:02:30.543Z,42.1
2024-02-14T16:08:10.349Z,42.4
2024-02-14T16:13:48.818Z,42.4
2024-02-14T16:19:29.503Z,42.3
2024-02-14T16:25:24.684Z,42
2024-02-14T16:31:03.454Z,38.5
2024-02-14T16:36:43.766Z,39.3
2024-02-14T16:42:37.705Z,37.3
2024-02-14T16:48:19.912Z,37.1
2024-02-14T16:54:02.937Z,39.9
2024-02-14T16:59:45.388Z,37.5
2024-02-14T17:05:21.778Z,41.3
2024-02-14T17:11:03.795Z,40.2
2024-02-14T17:16:30.997Z,37.8
2024-02-14T17:22:17.019Z,37.6
2024-02-14T17:27:59.531Z,37.1
2024-02-14T17:33:52.063Z,37.9
2024-02-14T17:39:32.075Z,37.3
2024-02-14T17:44:54.816Z,37.3
2024-02-14T17:50:34.679Z,37.1
2024-02-14T17:56:13.861Z,36.9
2024-02-14T18:01:52.804Z,36.5
2024-02-14T18:07:19.624Z,36
2024-02-14T18:13:00.869Z,35.8
2024-02-14T18:18:23.859Z,36.4
2024-02-14T18:24:04.926Z,37.7
2024-02-14T18:29:43.492Z,39.3
2024-02-14T18:35:10.415Z,37.6
2024-02-14T18:40:49.847Z,37.6
2024-02-14T18:46:27.949Z,37.3
2024-02-14T18:52:07.687Z,37.4
2024-02-14T18:57:46.458Z,37.3
2024-02-14T19:03:27.047Z,39.1
2024-02-14T19:09:06.604Z,37.9
2024-02-14T19:14:45.191Z,38.1
2024-02-14T19:20:38.450Z,37.5
2024-02-14T19:26:17.211Z,39.5
2024-02-14T19:31:56.570Z,37.7
